Time;durP1;ratioP1;P1;durP2;ratioP2;P2;SDS_P1;SDS_P2;PMS_P1;PMS_P2;Temp;Humidity;BMP_temperature;BMP_pressure;BME280_temperature;BME280_humidity;BME280_pressure;Samples;Min_cycle;Max_cycle;Signal;HPM_P1;HPM_P2
2022/03/03 00:01:52;;;;;;;12.27;8.48;;;18.10;55.60;;;;;;5013762;28;20139;-79
2022/03/03 00:04:18;;;;;;;13.60;8.00;;;18.10;55.90;;;;;;5013459;28;20386;-76
2022/03/03 00:06:44;;;;;;;14.50;7.50;;;18.00;56.00;;;;;;5012770;28;20164;-74
2022/03/03 00:09:10;;;;;;;10.43;7.70;;;18.00;55.80;;;;;;5012817;28;20025;-77
2022/03/03 00:11:36;;;;;;;11.52;8.18;;;18.00;55.90;;;;;;5012792;28;20072;-75
2022/03/03 00:14:01;;;;;;;10.30;7.25;;;18.00;55.70;;;;;;5011939;28;20037;-78
2022/03/03 00:16:27;;;;;;;10.05;7.10;;;17.90;55.50;;;;;;5012941;28;20375;-78
2022/03/03 00:18:53;;;;;;;11.35;7.55;;;17.90;55.60;;;;;;5012794;28;20030;-78
2022/03/03 00:21:19;;;;;;;11.88;8.02;;;17.90;55.50;;;;;;5013334;28;20030;-78
2022/03/03 00:23:44;;;;;;;11.02;6.90;;;17.90;55.50;;;;;;5012741;28;20079;-74
2022/03/03 00:26:10;;;;;;;11.80;7.45;;;17.90;55.60;;;;;;5012774;28;20061;-73
2022/03/03 00:28:36;;;;;;;10.52;7.68;;;17.80;55.50;;;;;;4994994;28;20397;-74
2022/03/03 00:31:02;;;;;;;13.23;8.07;;;17.80;55.50;;;;;;5012171;28;20036;-75
2022/03/03 00:33:28;;;;;;;12.15;7.85;;;17.80;55.40;;;;;;5012204;28;20477;-73
2022/03/03 00:35:54;;;;;;;13.13;8.02;;;17.80;55.40;;;;;;5012406;28;20037;-73
2022/03/03 00:38:20;;;;;;;11.15;7.18;;;17.70;55.20;;;;;;5012366;28;20375;-73
2022/03/03 00:40:45;;;;;;;10.45;7.22;;;17.70;55.10;;;;;;5012823;28;20022;-79
2022/03/03 00:43:12;;;;;;;10.88;7.35;;;17.70;55.10;;;;;;5012017;28;20521;-77
2022/03/03 00:45:38;;;;;;;11.20;8.23;;;17.70;55.00;;;;;;5012304;28;20061;-76
2022/03/03 00:48:04;;;;;;;11.73;8.23;;;17.70;55.00;;;;;;5012482;28;20022;-74
2022/03/03 00:50:30;;;;;;;12.20;8.30;;;17.60;54.90;;;;;;5010825;28;20030;-74
2022/03/03 00:52:57;;;;;;;10.43;7.10;;;17.60;54.80;;;;;;5010901;28;20402;-74
2022/03/03 00:55:22;;;;;;;11.02;7.68;;;17.60;54.70;;;;;;5011981;28;20022;-74
2022/03/03 00:57:48;;;;;;;10.73;7.05;;;17.60;54.70;;;;;;5012540;28;20028;-74
2022/03/03 01:00:14;;;;;;;12.13;8.20;;;17.60;54.70;;;;;;5012239;28;20033;-77
2022/03/03 01:02:40;;;;;;;13.18;7.88;;;17.50;54.50;;;;;;5011926;28;20026;-75
2022/03/03 01:05:06;;;;;;;11.15;7.95;;;17.50;54.50;;;;;;5011947;28;20026;-75
2022/03/03 01:07:32;;;;;;;10.98;8.05;;;17.50;54.40;;;;;;5011376;28;20022;-73
2022/03/03 01:09:58;;;;;;;11.43;8.18;;;17.50;54.70;;;;;;5011895;28;20028;-75
2022/03/03 01:12:24;;;;;;;13.13;8.45;;;17.40;54.20;;;;;;5011610;28;20039;-74
2022/03/03 01:14:49;;;;;;;13.23;9.20;;;17.40;54.20;;;;;;5010872;28;20038;-73
2022/03/03 01:17:16;;;;;;;11.40;8.50;;;17.40;54.10;;;;;;5011833;28;20033;-74
2022/03/03 01:19:42;;;;;;;13.60;9.10;;;17.40;54.10;;;;;;5011551;28;20038;-75
2022/03/03 01:22:07;;;;;;;11.95;7.97;;;17.40;54.10;;;;;;5011883;28;20025;-80
2022/03/03 01:24:33;;;;;;;13.20;8.75;;;17.30;54.10;;;;;;5011698;28;20029;-76
2022/03/03 01:27:00;;;;;;;10.43;7.85;;;17.30;54.10;;;;;;5011707;28;20482;-77
2022/03/03 01:29:25;;;;;;;13.43;8.55;;;17.30;54.00;;;;;;5011532;28;20033;-77
2022/03/03 01:31:51;;;;;;;13.48;8.73;;;17.30;53.90;;;;;;5011414;28;20029;-78
2022/03/03 01:34:17;;;;;;;11.50;7.82;;;17.30;53.90;;;;;;5011862;28;20517;-75
2022/03/03 01:36:43;;;;;;;13.25;8.90;;;17.20;53.80;;;;;;5011476;28;20018;-77
2022/03/03 01:39:10;;;;;;;11.20;7.97;;;17.20;53.80;;;;;;4993869;28;20088;-75
2022/03/03 01:41:36;;;;;;;11.60;8.00;;;17.20;53.80;;;;;;5011409;28;20022;-73
2022/03/03 01:44:03;;;;;;;11.48;8.75;;;17.20;53.80;;;;;;5011129;28;20034;-74
2022/03/03 01:46:29;;;;;;;10.68;8.10;;;17.20;53.70;;;;;;5011162;28;20029;-73
2022/03/03 01:48:55;;;;;;;14.13;9.05;;;17.20;53.70;;;;;;5013679;28;20029;-76
2022/03/03 01:51:21;;;;;;;11.10;7.82;;;17.20;53.70;;;;;;5017750;28;20026;-73
2022/03/03 01:53:47;;;;;;;14.13;9.07;;;17.10;53.60;;;;;;5016113;28;20394;-75
2022/03/03 01:56:13;;;;;;;12.85;8.23;;;17.10;54.10;;;;;;5017945;28;20125;-76
2022/03/03 01:58:39;;;;;;;11.85;9.05;;;17.10;53.60;;;;;;5017415;28;20026;-74
2022/03/03 02:01:05;;;;;;;11.13;8.07;;;17.10;53.50;;;;;;5017856;28;20022;-73
2022/03/03 02:03:31;;;;;;;12.20;8.32;;;17.10;53.50;;;;;;5017566;28;20026;-73
2022/03/03 02:05:56;;;;;;;10.60;8.27;;;17.00;53.50;;;;;;5017855;28;20018;-73
2022/03/03 02:08:23;;;;;;;11.32;8.07;;;17.00;53.50;;;;;;5016561;28;20042;-73
2022/03/03 02:10:52;;;;;;;11.52;8.48;;;17.00;53.50;;;;;;5016845;28;20049;-74
2022/03/03 02:13:18;;;;;;;13.98;8.75;;;17.00;53.40;;;;;;5017520;28;20100;-74
2022/03/03 02:15:52;;;;;;;14.13;9.45;;;17.00;53.40;;;;;;5016168;28;20429;-74
2022/03/03 02:18:18;;;;;;;12.43;8.50;;;17.00;53.40;;;;;;5018088;28;20026;-73
2022/03/03 02:20:44;;;;;;;12.13;8.73;;;16.90;53.30;;;;;;5017503;28;20033;-73
2022/03/03 02:23:09;;;;;;;12.55;8.32;;;16.90;53.40;;;;;;5017283;28;20065;-75
2022/03/03 02:25:35;;;;;;;11.00;8.00;;;16.90;53.30;;;;;;5017378;28;20061;-75
2022/03/03 02:28:00;;;;;;;10.43;8.07;;;16.90;53.30;;;;;;5017633;28;20022;-74
2022/03/03 02:30:26;;;;;;;11.75;8.80;;;16.90;53.20;;;;;;5017370;28;20579;-73
2022/03/03 02:32:52;;;;;;;10.38;8.07;;;16.90;53.20;;;;;;5017667;28;20044;-79
2022/03/03 02:35:18;;;;;;;11.52;8.10;;;16.90;53.10;;;;;;5017929;28;20069;-77
2022/03/03 02:37:45;;;;;;;11.68;8.15;;;16.80;53.00;;;;;;5016844;28;20065;-75
2022/03/03 02:40:14;;;;;;;15.60;9.02;;;16.80;52.90;;;;;;5017575;28;20033;-74
2022/03/03 02:42:39;;;;;;;10.95;8.30;;;16.80;52.90;;;;;;5016866;28;20359;-78
2022/03/03 02:45:06;;;;;;;10.95;7.93;;;16.90;52.90;;;;;;5017461;28;20033;-74
2022/03/03 02:47:32;;;;;;;11.57;8.60;;;16.90;52.90;;;;;;5016086;28;20053;-73
2022/03/03 02:49:57;;;;;;;11.30;8.65;;;16.90;52.80;;;;;;5017582;28;20502;-77
2022/03/03 02:52:24;;;;;;;12.73;8.38;;;16.90;52.80;;;;;;5017175;28;20042;-77
2022/03/03 02:54:50;;;;;;;12.60;8.82;;;16.90;52.70;;;;;;5017507;28;20092;-74
2022/03/03 03:00:00;;;;;;;12.10;9.00;;;16.90;52.60;;;;;;5014798;28;20064;-76
2022/03/03 03:02:26;;;;;;;11.75;8.65;;;16.90;52.60;;;;;;5014272;28;20049;-77
2022/03/03 03:04:51;;;;;;;13.80;9.32;;;16.90;52.50;;;;;;5014273;28;20461;-78
2022/03/03 03:07:17;;;;;;;14.75;9.80;;;16.90;52.50;;;;;;5014735;28;20092;-80
2022/03/03 03:09:43;;;;;;;13.02;8.85;;;16.90;52.50;;;;;;5014086;28;20555;-81
2022/03/03 03:12:09;;;;;;;13.95;9.32;;;16.90;52.50;;;;;;5014248;28;20041;-82
2022/03/03 03:14:35;;;;;;;11.52;8.45;;;16.90;52.40;;;;;;5014427;28;20034;-76
2022/03/03 03:17:00;;;;;;;12.57;8.95;;;16.90;52.40;;;;;;5014366;28;20106;-80
2022/03/03 03:19:26;;;;;;;12.27;9.02;;;16.90;52.40;;;;;;5013702;28;20939;-82
2022/03/03 03:21:52;;;;;;;10.93;8.45;;;16.90;52.30;;;;;;5014238;28;20029;-78
2022/03/03 03:24:17;;;;;;;11.63;8.63;;;16.90;52.30;;;;;;5014435;28;20033;-80
2022/03/03 03:26:43;;;;;;;12.55;9.15;;;16.90;52.30;;;;;;5012687;28;20450;-80
2022/03/03 03:29:09;;;;;;;12.38;8.52;;;16.90;52.20;;;;;;5001670;28;20030;-78
2022/03/03 03:31:35;;;;;;;12.00;8.73;;;16.90;52.10;;;;;;4992880;28;20509;-79
2022/03/03 03:34:00;;;;;;;12.25;9.00;;;16.90;52.10;;;;;;4994220;28;20406;-77
2022/03/03 03:36:26;;;;;;;15.18;9.65;;;16.90;52.10;;;;;;4994345;28;20050;-79
2022/03/03 03:38:52;;;;;;;12.35;8.88;;;16.90;52.00;;;;;;4994124;28;20100;-74
2022/03/03 03:41:18;;;;;;;12.55;9.20;;;16.90;51.90;;;;;;4994645;28;20026;-79
2022/03/03 03:43:43;;;;;;;12.50;8.63;;;17.00;51.90;;;;;;5004187;28;20026;-79
2022/03/03 03:46:09;;;;;;;12.82;8.65;;;17.00;51.80;;;;;;5013999;28;20356;-77
2022/03/03 03:48:35;;;;;;;11.55;9.02;;;17.00;51.80;;;;;;5013507;28;20393;-79
2022/03/03 03:51:00;;;;;;;12.27;8.68;;;17.00;51.70;;;;;;5013506;28;20379;-78
2022/03/03 03:53:26;;;;;;;11.30;8.82;;;17.00;51.70;;;;;;5013201;28;20055;-78
2022/03/03 03:55:52;;;;;;;13.85;8.52;;;17.00;51.70;;;;;;5013352;28;20048;-77
2022/03/03 03:58:17;;;;;;;12.93;9.13;;;17.00;51.70;;;;;;5013849;28;20417;-80
2022/03/03 04:00:43;;;;;;;13.80;8.77;;;16.90;51.70;;;;;;5011329;28;20050;-79
2022/03/03 04:03:09;;;;;;;12.30;8.63;;;17.00;51.70;;;;;;5013236;28;20018;-77
2022/03/03 04:05:35;;;;;;;11.63;8.77;;;17.00;51.80;;;;;;4995256;28;20026;-76
2022/03/03 04:08:01;;;;;;;12.35;9.02;;;17.00;51.80;;;;;;5013201;28;20037;-73
2022/03/03 04:10:28;;;;;;;12.80;9.05;;;17.00;51.80;;;;;;5012841;28;20014;-73
2022/03/03 04:12:54;;;;;;;13.45;8.45;;;17.00;51.70;;;;;;5012752;28;20533;-78
2022/03/03 04:15:20;;;;;;;14.55;8.30;;;17.00;51.60;;;;;;5012512;28;20398;-74
2022/03/03 04:17:46;;;;;;;13.20;8.80;;;17.00;51.60;;;;;;5013245;28;20033;-78
2022/03/03 04:20:12;;;;;;;12.85;9.00;;;17.00;51.60;;;;;;5012983;28;20018;-79
2022/03/03 04:22:38;;;;;;;11.63;8.75;;;17.00;51.60;;;;;;5012658;28;20084;-76
2022/03/03 04:25:05;;;;;;;12.15;8.77;;;17.00;51.50;;;;;;5012864;28;20056;-77
2022/03/03 04:27:30;;;;;;;11.23;8.55;;;17.00;51.50;;;;;;5011434;28;20057;-75
2022/03/03 04:29:56;;;;;;;10.77;8.38;;;17.10;51.50;;;;;;5011121;28;20530;-79
2022/03/03 04:32:21;;;;;;;12.70;8.45;;;17.10;51.50;;;;;;5012392;28;20398;-77
2022/03/03 04:34:47;;;;;;;10.80;8.60;;;17.10;51.50;;;;;;5013024;28;20034;-74
2022/03/03 04:37:13;;;;;;;12.80;8.75;;;17.10;51.50;;;;;;5012190;28;20497;-75
2022/03/03 04:39:39;;;;;;;10.57;8.93;;;17.10;51.40;;;;;;5011947;28;20421;-74
2022/03/03 04:42:05;;;;;;;13.13;8.85;;;17.10;51.40;;;;;;5012511;28;20029;-76
2022/03/03 04:44:31;;;;;;;12.05;8.50;;;17.10;51.50;;;;;;5012205;28;20430;-73
2022/03/03 04:46:56;;;;;;;11.55;7.97;;;17.10;51.50;;;;;;5012397;28;20108;-74
2022/03/03 04:49:22;;;;;;;12.70;8.43;;;17.10;51.40;;;;;;4994531;28;20144;-74
2022/03/03 04:51:47;;;;;;;11.32;8.70;;;17.10;51.40;;;;;;5012371;28;20033;-74
2022/03/03 04:54:13;;;;;;;11.07;8.38;;;17.10;51.40;;;;;;5012139;28;20084;-74
2022/03/03 04:56:39;;;;;;;11.10;8.25;;;17.10;51.40;;;;;;5011938;28;20410;-74
2022/03/03 04:59:05;;;;;;;12.02;8.20;;;17.10;51.40;;;;;;5012111;28;20041;-73
2022/03/03 05:01:32;;;;;;;12.23;8.60;;;17.10;51.40;;;;;;4994243;28;20155;-74
2022/03/03 05:03:57;;;;;;;11.20;8.43;;;17.10;51.40;;;;;;5012072;28;20080;-75
2022/03/03 05:06:23;;;;;;;10.05;8.60;;;17.10;51.30;;;;;;5011752;28;20026;-73
2022/03/03 05:08:49;;;;;;;12.50;9.63;;;17.10;51.30;;;;;;5011996;28;20564;-74
2022/03/03 05:11:15;;;;;;;12.43;8.38;;;17.10;51.20;;;;;;5012230;28;20033;-73
2022/03/03 05:13:41;;;;;;;10.80;8.30;;;17.10;51.20;;;;;;5011552;28;20038;-78
2022/03/03 05:16:06;;;;;;;11.60;8.15;;;17.20;51.20;;;;;;5010077;28;20022;-78
2022/03/03 05:18:32;;;;;;;11.70;8.07;;;17.10;51.10;;;;;;5011738;28;20026;-78
2022/03/03 05:20:58;;;;;;;12.23;8.65;;;17.10;51.10;;;;;;5011966;28;20025;-77
2022/03/03 05:23:24;;;;;;;13.73;8.20;;;17.10;51.10;;;;;;5010960;28;20543;-76
2022/03/03 05:25:49;;;;;;;11.95;8.70;;;17.10;51.00;;;;;;5012135;28;20018;-78
2022/03/03 05:28:15;;;;;;;11.00;8.02;;;17.10;51.00;;;;;;5012208;28;20044;-75
2022/03/03 05:30:41;;;;;;;11.93;8.75;;;17.20;51.10;;;;;;4999266;28;20403;-79
2022/03/03 05:33:07;;;;;;;13.32;9.13;;;17.20;51.00;;;;;;4992099;28;20089;-76
2022/03/03 05:35:33;;;;;;;14.88;8.85;;;17.20;51.00;;;;;;4991772;28;20102;-79
2022/03/03 05:37:59;;;;;;;10.48;7.88;;;17.20;51.00;;;;;;4990753;28;20027;-76
2022/03/03 05:40:25;;;;;;;12.60;8.57;;;17.20;51.00;;;;;;5004375;28;20546;-75
2022/03/03 05:42:52;;;;;;;12.10;8.35;;;17.20;51.00;;;;;;5011627;28;20026;-78
2022/03/03 05:45:17;;;;;;;10.55;7.97;;;17.20;51.00;;;;;;5011823;28;20032;-74
2022/03/03 05:47:45;;;;;;;10.52;8.02;;;17.20;51.00;;;;;;5011325;28;20105;-74
2022/03/03 05:50:10;;;;;;;13.02;8.48;;;17.20;51.00;;;;;;5011540;28;20026;-76
2022/03/03 05:52:36;;;;;;;11.63;7.53;;;17.20;51.50;;;;;;5011250;28;20509;-75
2022/03/03 05:55:03;;;;;;;9.95;7.40;;;17.20;51.00;;;;;;5011159;28;20549;-74
2022/03/03 05:57:34;;;;;;;11.32;8.38;;;17.20;51.00;;;;;;5011304;28;20030;-77
2022/03/03 06:00:10;;;;;;;10.20;8.02;;;17.20;50.90;;;;;;5011182;28;20049;-78
2022/03/03 06:02:36;;;;;;;11.38;8.00;;;17.20;50.90;;;;;;5008541;28;20030;-78
2022/03/03 06:05:03;;;;;;;10.65;7.97;;;17.20;50.90;;;;;;5011289;28;20041;-73
2022/03/03 06:07:33;;;;;;;10.32;7.45;;;17.20;50.90;;;;;;5011040;28;20065;-75
2022/03/03 06:10:03;;;;;;;9.77;7.72;;;17.30;50.90;;;;;;5011149;28;20026;-78
2022/03/03 06:12:47;;;;;;;10.15;7.35;;;17.30;50.80;;;;;;5010608;28;20041;-78
2022/03/03 06:15:14;;;;;;;11.63;7.63;;;17.30;50.80;;;;;;5011389;28;20026;-76
2022/03/03 06:17:44;;;;;;;9.48;7.25;;;17.30;50.80;;;;;;5010629;28;20892;-74
2022/03/03 06:20:10;;;;;;;10.07;8.00;;;17.30;50.80;;;;;;5010357;28;20457;-73
2022/03/03 06:22:36;;;;;;;11.57;7.82;;;17.40;50.70;;;;;;5010516;28;20018;-73
2022/03/03 06:25:01;;;;;;;11.13;7.22;;;17.40;50.70;;;;;;5011031;28;20404;-77
2022/03/03 06:27:29;;;;;;;10.13;7.30;;;17.40;50.80;;;;;;5010910;28;20030;-74
2022/03/03 06:29:56;;;;;;;10.32;7.43;;;17.40;50.80;;;;;;5010067;28;20068;-74
2022/03/03 06:32:21;;;;;;;12.65;8.15;;;17.40;50.80;;;;;;5010160;28;20046;-74
2022/03/03 06:34:47;;;;;;;9.88;7.05;;;17.40;50.80;;;;;;5012551;28;20022;-73
2022/03/03 06:37:13;;;;;;;10.90;7.75;;;17.40;50.70;;;;;;5014957;28;20022;-74
2022/03/03 06:39:38;;;;;;;9.30;7.03;;;17.40;50.60;;;;;;5013697;28;20029;-73
2022/03/03 06:42:04;;;;;;;9.82;7.60;;;17.40;50.60;;;;;;5014683;28;20097;-75
2022/03/03 06:44:30;;;;;;;10.38;7.13;;;17.50;50.60;;;;;;5013028;28;20077;-73
2022/03/03 06:46:56;;;;;;;11.05;8.02;;;17.50;50.60;;;;;;5013919;28;20034;-74
2022/03/03 06:49:22;;;;;;;13.60;7.57;;;17.50;50.70;;;;;;5014211;28;20521;-73
2022/03/03 06:51:49;;;;;;;11.32;7.70;;;17.50;50.70;;;;;;5014815;28;20061;-74
2022/03/03 06:54:21;;;;;;;10.25;7.55;;;17.50;50.60;;;;;;5015014;28;20489;-74
2022/03/03 06:56:50;;;;;;;9.32;7.13;;;17.60;50.80;;;;;;5013883;28;20096;-75
2022/03/03 06:59:19;;;;;;;9.70;7.28;;;17.60;50.90;;;;;;5014432;28;20103;-74
2022/03/03 07:01:49;;;;;;;9.73;7.05;;;17.60;51.10;;;;;;5014479;28;20061;-74
2022/03/03 07:04:16;;;;;;;10.75;8.07;;;17.60;51.10;;;;;;5013304;28;20132;-74
2022/03/03 07:06:43;;;;;;;13.18;7.40;;;17.60;51.10;;;;;;5008174;28;20072;-74
2022/03/03 07:09:09;;;;;;;12.02;7.47;;;17.60;51.20;;;;;;5012010;28;20013;-73
2022/03/03 07:11:38;;;;;;;12.20;7.28;;;17.60;51.30;;;;;;5013362;28;20022;-74
2022/03/03 07:14:05;;;;;;;9.13;6.65;;;17.60;51.40;;;;;;5013146;28;20034;-76
2022/03/03 07:16:41;;;;;;;8.60;7.00;;;17.70;51.40;;;;;;5012027;28;20034;-76
2022/03/03 07:19:18;;;;;;;10.77;7.18;;;17.70;51.30;;;;;;5013905;28;20418;-75
2022/03/03 07:22:12;;;;;;;10.85;6.55;;;17.70;51.40;;;;;;5012787;28;20022;-74
2022/03/03 07:24:52;;;;;;;10.82;7.70;;;17.80;51.40;;;;;;5013269;28;20022;-74
2022/03/03 07:27:23;;;;;;;10.70;7.18;;;17.80;51.40;;;;;;4994562;28;20073;-75
2022/03/03 07:29:58;;;;;;;11.05;7.35;;;17.80;51.40;;;;;;5006950;28;20099;-74
2022/03/03 07:32:34;;;;;;;9.15;7.20;;;17.80;51.30;;;;;;4994311;28;20501;-74
2022/03/03 07:35:12;;;;;;;8.82;7.20;;;17.80;51.40;;;;;;5007317;28;20021;-75
2022/03/03 07:37:56;;;;;;;10.30;7.57;;;17.80;51.40;;;;;;5006893;28;20026;-75
2022/03/03 07:40:26;;;;;;;10.57;7.28;;;17.80;51.30;;;;;;4991361;28;20036;-75
2022/03/03 07:42:52;;;;;;;11.15;7.40;;;17.80;51.20;;;;;;5011514;28;20486;-76
2022/03/03 07:45:18;;;;;;;11.80;7.40;;;17.80;51.10;;;;;;5013304;28;20041;-75
2022/03/03 07:47:47;;;;;;;13.20;8.35;;;17.80;51.00;;;;;;5012414;28;20022;-76
2022/03/03 07:50:13;;;;;;;11.70;7.38;;;17.80;50.80;;;;;;5011981;28;20080;-75
2022/03/03 07:52:39;;;;;;;10.45;7.20;;;17.80;50.80;;;;;;5013063;28;20037;-75
2022/03/03 07:55:05;;;;;;;10.98;7.47;;;17.80;50.80;;;;;;4995745;28;20041;-74
2022/03/03 07:57:38;;;;;;;16.38;9.18;;;17.80;50.60;;;;;;5011933;28;20015;-74
2022/03/03 08:00:13;;;;;;;11.43;8.63;;;17.80;50.50;;;;;;5010872;28;20038;-83
2022/03/03 08:02:43;;;;;;;13.30;9.00;;;17.80;50.80;;;;;;5012896;28;20030;-78
2022/03/03 08:05:10;;;;;;;11.65;8.55;;;17.90;50.80;;;;;;5012213;28;20113;-76
2022/03/03 08:07:44;;;;;;;15.88;8.55;;;17.80;50.80;;;;;;5012135;28;20022;-75
2022/03/03 08:10:11;;;;;;;11.55;8.70;;;17.90;51.00;;;;;;5012568;28;20034;-75
2022/03/03 08:12:39;;;;;;;13.50;8.18;;;17.90;51.00;;;;;;5011718;28;20371;-76
2022/03/03 08:15:06;;;;;;;12.93;8.50;;;17.90;51.10;;;;;;5012278;28;20018;-75
2022/03/03 08:17:34;;;;;;;14.68;8.98;;;17.80;51.30;;;;;;5012361;28;20037;-74
2022/03/03 08:20:02;;;;;;;14.05;8.45;;;17.80;51.30;;;;;;5012409;28;20101;-75
2022/03/03 08:22:28;;;;;;;15.43;9.02;;;17.90;51.40;;;;;;5012419;28;20030;-75
2022/03/03 08:24:58;;;;;;;11.48;8.00;;;17.80;51.90;;;;;;5012421;28;20052;-75
2022/03/03 08:27:26;;;;;;;13.60;8.52;;;17.90;51.50;;;;;;5012667;28;20371;-79
2022/03/03 08:29:53;;;;;;;13.95;8.75;;;17.80;51.50;;;;;;5012622;28;20026;-76
2022/03/03 08:32:20;;;;;;;13.43;8.18;;;17.80;51.50;;;;;;5012902;28;20405;-81
2022/03/03 08:34:57;;;;;;;12.30;7.75;;;17.80;51.50;;;;;;5012324;28;20497;-76
2022/03/03 08:37:51;;;;;;;14.27;7.95;;;17.80;51.40;;;;;;5012215;28;20033;-82
2022/03/03 08:40:17;;;;;;;13.05;8.30;;;17.90;51.40;;;;;;4990927;28;20041;-77
2022/03/03 08:42:56;;;;;;;12.07;7.72;;;17.90;51.90;;;;;;5011362;28;20032;-75
2022/03/03 08:45:23;;;;;;;12.38;8.02;;;17.90;51.30;;;;;;5012195;28;20033;-76
2022/03/03 08:47:56;;;;;;;15.82;8.23;;;17.80;51.20;;;;;;5012630;28;20486;-80
2022/03/03 08:50:24;;;;;;;13.02;8.05;;;17.80;51.20;;;;;;5011114;28;20026;-75
2022/03/03 08:52:52;;;;;;;13.27;8.20;;;17.80;51.10;;;;;;5012118;28;20096;-79
2022/03/03 08:55:18;;;;;;;10.90;8.07;;;17.80;51.10;;;;;;5012427;28;20101;-76
2022/03/03 08:57:43;;;;;;;13.20;7.82;;;17.80;51.10;;;;;;5010151;28;20109;-75
2022/03/03 09:00:11;;;;;;;11.68;8.18;;;17.80;51.00;;;;;;5011461;28;20018;-76
2022/03/03 09:02:36;;;;;;;14.68;7.78;;;17.80;50.90;;;;;;5011274;28;20036;-75
2022/03/03 09:05:03;;;;;;;12.02;7.60;;;17.80;50.90;;;;;;5011374;28;20026;-75
2022/03/03 09:07:29;;;;;;;10.27;7.82;;;17.80;50.90;;;;;;5010918;28;20026;-76
2022/03/03 09:09:55;;;;;;;10.15;7.60;;;17.80;50.80;;;;;;5010788;28;20100;-75
2022/03/03 09:12:21;;;;;;;10.07;7.43;;;17.80;50.80;;;;;;5010955;28;20065;-76
2022/03/03 09:14:47;;;;;;;9.18;6.75;;;17.80;50.80;;;;;;5011360;28;20014;-75
2022/03/03 09:17:13;;;;;;;8.93;7.07;;;17.80;50.70;;;;;;5012056;28;20540;-76
2022/03/03 09:19:38;;;;;;;9.63;6.82;;;17.80;50.70;;;;;;5011117;28;20452;-75
2022/03/03 09:22:04;;;;;;;12.52;7.70;;;17.90;50.60;;;;;;5011548;28;20540;-75
2022/03/03 09:24:30;;;;;;;11.02;7.35;;;17.90;50.50;;;;;;5010177;28;20034;-76
2022/03/03 09:26:56;;;;;;;11.30;7.63;;;17.90;50.50;;;;;;5012905;28;20026;-75
2022/03/03 09:29:22;;;;;;;10.10;7.18;;;17.90;50.40;;;;;;5010846;28;20049;-77
2022/03/03 09:31:48;;;;;;;9.57;6.93;;;17.90;50.40;;;;;;5011991;28;20521;-75
2022/03/03 09:34:14;;;;;;;12.52;7.80;;;17.80;50.30;;;;;;5010444;28;20795;-78
2022/03/03 09:36:40;;;;;;;10.57;7.28;;;17.80;50.20;;;;;;5009855;28;20389;-77
2022/03/03 09:39:06;;;;;;;13.50;7.32;;;17.80;50.30;;;;;;5010586;28;20038;-75
2022/03/03 09:41:31;;;;;;;10.95;7.80;;;17.80;50.30;;;;;;5006674;28;20037;-77
2022/03/03 09:43:58;;;;;;;10.75;7.72;;;17.80;50.30;;;;;;5011125;28;20130;-75
2022/03/03 09:46:24;;;;;;;11.10;7.85;;;17.80;50.30;;;;;;4991626;28;20136;-74
2022/03/03 09:48:50;;;;;;;10.00;7.72;;;17.80;50.30;;;;;;4992136;28;20109;-75
2022/03/03 09:51:15;;;;;;;11.98;7.40;;;17.80;50.30;;;;;;4994973;28;20025;-76
2022/03/03 09:53:42;;;;;;;11.77;7.57;;;17.80;50.20;;;;;;5010427;28;20041;-76
2022/03/03 09:56:08;;;;;;;10.50;7.25;;;17.80;50.20;;;;;;5010551;28;20068;-76
2022/03/03 09:58:33;;;;;;;9.55;7.18;;;17.80;50.20;;;;;;5005983;28;20034;-74
2022/03/03 10:00:59;;;;;;;9.95;7.40;;;17.80;50.10;;;;;;5010941;28;20049;-75
2022/03/03 10:03:32;;;;;;;14.57;8.10;;;17.80;50.10;;;;;;5011126;28;20087;-79
2022/03/03 10:06:00;;;;;;;11.43;8.23;;;17.80;50.00;;;;;;5011268;28;20029;-74
2022/03/03 10:08:27;;;;;;;13.00;7.70;;;17.80;50.00;;;;;;5010876;28;20072;-81
2022/03/03 10:10:55;;;;;;;10.50;7.82;;;17.80;50.00;;;;;;5013985;28;20034;-81
2022/03/03 10:13:22;;;;;;;12.52;8.20;;;17.80;50.00;;;;;;5013876;28;20521;-79
2022/03/03 10:15:51;;;;;;;10.55;7.90;;;17.80;50.10;;;;;;5015653;28;20418;-82
2022/03/03 10:18:18;;;;;;;10.88;7.72;;;17.80;50.10;;;;;;5015504;28;20030;-78
2022/03/03 10:20:50;;;;;;;10.10;7.13;;;17.80;50.00;;;;;;5014386;28;20030;-75
2022/03/03 10:23:17;;;;;;;9.13;7.15;;;17.80;50.00;;;;;;5014492;28;20029;-75
2022/03/03 10:25:44;;;;;;;10.50;7.60;;;17.80;49.90;;;;;;5014167;28;20038;-80
2022/03/03 10:28:36;;;;;;;11.90;7.70;;;17.80;49.80;;;;;;5014978;28;20105;-75
2022/03/03 10:31:02;;;;;;;10.57;8.05;;;17.80;49.80;;;;;;5009922;28;20042;-75
2022/03/03 10:33:38;;;;;;;10.40;7.90;;;17.90;49.80;;;;;;5014473;28;20110;-75
2022/03/03 10:36:30;;;;;;;9.55;7.38;;;17.90;49.80;;;;;;5014740;28;20418;-75
2022/03/03 10:39:03;;;;;;;11.93;7.18;;;17.90;49.70;;;;;;5014167;28;20521;-75
2022/03/03 10:41:41;;;;;;;9.57;7.15;;;18.00;49.60;;;;;;5013940;28;20018;-74
2022/03/03 10:44:10;;;;;;;13.00;8.27;;;18.00;49.50;;;;;;5014664;28;20390;-75
2022/03/03 10:46:38;;;;;;;10.27;7.32;;;18.00;49.50;;;;;;5014290;28;20022;-82
2022/03/03 10:49:17;;;;;;;13.65;8.27;;;18.00;49.50;;;;;;4996947;28;20029;-82
2022/03/03 10:51:44;;;;;;;12.70;7.50;;;18.00;49.50;;;;;;5013481;28;20061;-75
2022/03/03 10:54:10;;;;;;;9.40;6.80;;;18.00;49.50;;;;;;5013758;28;20060;-76
2022/03/03 10:56:46;;;;;;;9.15;7.32;;;18.00;49.50;;;;;;5013693;28;20482;-80
2022/03/03 10:59:20;;;;;;;9.45;7.43;;;18.10;49.40;;;;;;5013866;28;20026;-78
2022/03/03 11:01:46;;;;;;;11.02;8.20;;;18.10;49.30;;;;;;5013616;28;20029;-79
2022/03/03 11:04:18;;;;;;;11.57;7.60;;;18.20;49.40;;;;;;5013701;28;20084;-75
2022/03/03 11:06:45;;;;;;;10.68;6.80;;;18.20;49.20;;;;;;5013141;28;20058;-80
2022/03/03 11:09:10;;;;;;;13.75;7.75;;;18.30;49.20;;;;;;5013490;28;20022;-77
2022/03/03 11:11:37;;;;;;;9.93;7.38;;;18.30;49.00;;;;;;5013940;28;20034;-75
2022/03/03 11:14:03;;;;;;;10.60;7.45;;;18.40;49.00;;;;;;5013902;28;20489;-74
2022/03/03 11:16:28;;;;;;;8.80;6.38;;;18.50;48.90;;;;;;5012993;28;20072;-75
2022/03/03 11:18:55;;;;;;;12.55;7.53;;;18.60;48.80;;;;;;5013978;28;20037;-75
2022/03/03 11:21:22;;;;;;;12.73;8.20;;;18.70;48.70;;;;;;5012674;28;20010;-75
2022/03/03 11:23:52;;;;;;;15.20;7.03;;;18.80;48.70;;;;;;5014152;28;20018;-76
2022/03/03 11:26:21;;;;;;;27.67;7.72;;;18.90;48.80;;;;;;5012647;28;20018;-76
2022/03/03 11:29:02;;;;;;;18.95;7.15;;;19.00;48.60;;;;;;5014174;28;20037;-75
2022/03/03 11:31:31;;;;;;;17.30;7.50;;;19.20;48.30;;;;;;5013062;28;20050;-75
2022/03/03 11:34:27;;;;;;;27.05;7.53;;;19.30;48.10;;;;;;5013578;28;20037;-75
2022/03/03 11:37:02;;;;;;;13.35;6.93;;;19.50;47.90;;;;;;5013680;28;20080;-74
2022/03/03 11:40:01;;;;;;;14.93;6.73;;;19.60;47.80;;;;;;5013187;28;20029;-75
2022/03/03 11:42:46;;;;;;;26.05;8.02;;;;;;;;;;4993320;28;20435;-75
2022/03/03 11:45:12;;;;;;;21.77;7.50;;;19.70;47.50;;;;;;5013492;28;20040;-74
2022/03/03 11:47:38;;;;;;;15.68;6.78;;;;;;;;;;5013199;28;20641;-75
2022/03/03 11:50:17;;;;;;;25.58;8.20;;;;;;;;;;5013335;28;20030;-75
2022/03/03 11:52:59;;;;;;;23.20;8.10;;;21.20;46.00;;;;;;5012315;28;20112;-76
2022/03/03 11:55:34;;;;;;;21.88;7.32;;;24.90;40.10;;;;;;5011746;28;20026;-75
2022/03/03 11:58:03;;;;;;;23.25;8.95;;;25.80;38.70;;;;;;5010104;28;20429;-74
2022/03/03 12:00:31;;;;;;;27.55;8.38;;;26.60;37.50;;;;;;5011296;28;20037;-75
2022/03/03 12:03:01;;;;;;;23.52;8.93;;;27.30;38.00;;;;;;5012480;28;20039;-74
2022/03/03 12:05:26;;;;;;;36.65;7.70;;;27.90;37.30;;;;;;5011828;28;20030;-75
2022/03/03 12:07:59;;;;;;;19.65;7.80;;;28.40;36.20;;;;;;5012617;28;20040;-77
2022/03/03 12:10:26;;;;;;;16.38;7.43;;;28.80;35.40;;;;;;5012831;28;20025;-74
2022/03/03 12:12:52;;;;;;;22.65;8.10;;;29.30;34.30;;;;;;5012033;28;20037;-74
2022/03/03 12:15:17;;;;;;;24.60;8.52;;;29.60;35.40;;;;;;5012469;28;20470;-75
2022/03/03 12:17:45;;;;;;;9.82;6.78;;;30.00;34.60;;;;;;5011165;28;20453;-74
2022/03/03 12:20:23;;;;;;;14.38;7.28;;;30.00;35.00;;;;;;5010707;28;20023;-75
2022/03/03 12:23:18;;;;;;;12.95;7.88;;;30.30;35.30;;;;;;5007507;28;20017;-74
2022/03/03 12:25:50;;;;;;;10.82;7.15;;;30.50;35.00;;;;;;5009308;28;20113;-73
2022/03/03 12:28:25;;;;;;;10.50;7.05;;;30.80;34.50;;;;;;5011394;28;20034;-75
2022/03/03 12:30:52;;;;;;;14.65;7.20;;;31.20;34.20;;;;;;4993634;28;20371;-74
2022/03/03 12:33:25;;;;;;;13.63;7.78;;;31.30;33.70;;;;;;5011673;28;20504;-75
2022/03/03 12:35:58;;;;;;;16.90;7.60;;;31.90;33.30;;;;;;5012177;28;20029;-75
2022/03/03 12:38:25;;;;;;;10.93;6.80;;;32.00;33.00;;;;;;5012023;28;20034;-74
2022/03/03 12:40:52;;;;;;;13.57;7.22;;;32.30;32.80;;;;;;5011539;28;20057;-75
2022/03/03 12:43:18;;;;;;;14.32;8.18;;;32.20;32.70;;;;;;5012018;28;20025;-79
2022/03/03 12:45:45;;;;;;;16.00;8.15;;;32.20;32.50;;;;;;5011617;28;20030;-80